createdAt,value
2018-03-14T00:01:28.126Z,100.00
2018-03-14T00:03:55.756Z,100.00
2018-03-14T00:06:23.351Z,100.00
2018-03-14T00:08:50.983Z,100.00
2018-03-14T00:11:18.604Z,100.00
2018-03-14T00:13:46.246Z,100.00
2018-03-14T00:16:13.869Z,100.00
2018-03-14T00:18:41.510Z,100.00
2018-03-14T00:21:09.170Z,100.00
2018-03-14T00:23:36.854Z,100.00
2018-03-14T00:26:04.459Z,100.00
2018-03-14T00:28:32.081Z,100.00
2018-03-14T00:30:59.678Z,100.00
2018-03-14T00:33:27.331Z,100.00
2018-03-14T00:35:54.958Z,100.00
2018-03-14T00:38:22.772Z,100.00
2018-03-14T00:40:50.425Z,100.00
2018-03-14T00:43:18.188Z,100.00
2018-03-14T00:45:45.795Z,100.00
2018-03-14T00:48:13.442Z,100.00
2018-03-14T00:50:41.048Z,100.00
2018-03-14T00:53:08.677Z,100.00
2018-03-14T00:55:36.305Z,100.00
2018-03-14T00:58:03.935Z,100.00
2018-03-14T01:00:31.538Z,100.00
2018-03-14T01:02:59.241Z,100.00
2018-03-14T01:05:26.865Z,100.00
2018-03-14T01:07:54.698Z,100.00
2018-03-14T01:10:22.319Z,100.00
2018-03-14T01:12:49.977Z,100.00
2018-03-14T01:15:17.739Z,100.00
2018-03-14T01:17:45.414Z,100.00
2018-03-14T01:20:13.009Z,100.00
2018-03-14T01:22:40.698Z,100.00
2018-03-14T01:25:08.342Z,100.00
2018-03-14T01:27:35.989Z,100.00
2018-03-14T01:30:03.573Z,100.00
2018-03-14T01:32:31.178Z,100.00
2018-03-14T01:34:58.826Z,100.00
2018-03-14T01:37:26.420Z,100.00
2018-03-14T01:39:54.210Z,100.00
2018-03-14T01:42:21.961Z,100.00
2018-03-14T01:44:49.689Z,100.00
2018-03-14T01:47:17.307Z,100.00
2018-03-14T01:49:44.931Z,100.00
2018-03-14T01:52:12.530Z,100.00
2018-03-14T01:54:40.164Z,100.00
2018-03-14T01:57:07.808Z,100.00
2018-03-14T01:59:35.427Z,100.00
2018-03-14T02:02:03.026Z,100.00
2018-03-14T02:04:30.722Z,100.00
2018-03-14T02:06:58.326Z,100.00
2018-03-14T02:09:25.969Z,100.00
2018-03-14T02:11:53.586Z,100.00
2018-03-14T02:14:21.241Z,100.00
2018-03-14T02:16:48.926Z,100.00
2018-03-14T02:19:16.571Z,100.00
2018-03-14T02:21:44.166Z,100.00
2018-03-14T02:24:11.813Z,100.00
2018-03-14T02:26:39.429Z,100.00
2018-03-14T02:29:07.079Z,100.00
2018-03-14T02:31:34.686Z,100.00
2018-03-14T02:34:02.322Z,100.00
2018-03-14T02:36:41.922Z,100.00
2018-03-14T02:39:09.550Z,100.00
2018-03-14T02:41:37.171Z,100.00
2018-03-14T02:44:04.874Z,100.00
2018-03-14T02:46:32.507Z,100.00
2018-03-14T02:49:00.146Z,100.00
2018-03-14T02:51:27.765Z,100.00
2018-03-14T02:53:55.365Z,100.00
2018-03-14T02:56:23.010Z,100.00
2018-03-14T02:58:50.619Z,100.00
2018-03-14T03:01:18.254Z,100.00
2018-03-14T03:03:45.854Z,100.00
2018-03-14T03:06:13.474Z,100.00
2018-03-14T03:08:41.065Z,100.00
2018-03-14T03:11:08.702Z,100.00
2018-03-14T03:13:36.388Z,100.00
2018-03-14T03:16:03.991Z,100.00
2018-03-14T03:18:31.581Z,100.00
2018-03-14T03:20:59.207Z,100.00
2018-03-14T03:23:26.907Z,100.00
2018-03-14T03:25:54.541Z,100.00
2018-03-14T03:28:22.143Z,100.00
2018-03-14T03:30:49.767Z,100.00
2018-03-14T03:33:17.385Z,100.00
2018-03-14T03:35:45.006Z,100.00
2018-03-14T03:38:12.654Z,100.00
2018-03-14T03:40:40.288Z,100.00
2018-03-14T03:43:07.866Z,100.00
2018-03-14T03:45:35.518Z,100.00
2018-03-14T03:48:03.121Z,100.00
2018-03-14T03:50:30.896Z,100.00
2018-03-14T03:52:58.502Z,100.00
2018-03-14T03:55:26.130Z,100.00
2018-03-14T03:57:53.746Z,100.00
2018-03-14T04:00:21.370Z,100.00
2018-03-14T04:02:49.075Z,100.00
2018-03-14T04:05:16.702Z,100.00
2018-03-14T04:07:44.314Z,100.00
2018-03-14T04:10:11.934Z,100.00
2018-03-14T04:12:39.538Z,100.00
2018-03-14T04:15:07.170Z,100.00
2018-03-14T04:17:34.778Z,100.00
2018-03-14T04:20:02.406Z,100.00
2018-03-14T04:22:30.013Z,100.00
2018-03-14T04:24:57.642Z,100.00
2018-03-14T04:27:25.255Z,100.00
2018-03-14T04:29:52.957Z,99.91
2018-03-14T04:32:20.550Z,99.47
2018-03-14T04:34:48.338Z,99.38
2018-03-14T04:37:16.031Z,99.19
2018-03-14T04:39:43.769Z,99.13
2018-03-14T04:42:11.436Z,99.23
2018-03-14T04:44:39.055Z,99.24
2018-03-14T04:47:06.698Z,99.37
2018-03-14T04:49:34.318Z,99.50
2018-03-14T04:52:01.924Z,99.47
2018-03-14T04:54:29.559Z,99.50
2018-03-14T04:56:57.154Z,99.48
2018-03-14T04:59:24.796Z,99.58
2018-03-14T05:01:52.407Z,99.77
2018-03-14T05:04:20.026Z,99.88
2018-03-14T05:06:47.622Z,99.79
2018-03-14T05:09:15.274Z,99.71
2018-03-14T05:11:42.922Z,99.66
2018-03-14T05:14:10.614Z,99.83
2018-03-14T05:16:38.215Z,100.00
2018-03-14T05:19:05.838Z,100.00
2018-03-14T05:21:33.431Z,100.00
2018-03-14T05:24:01.076Z,100.00
2018-03-14T05:26:28.681Z,100.00
2018-03-14T05:28:56.327Z,100.00
2018-03-14T05:31:23.934Z,100.00
2018-03-14T05:33:51.571Z,100.00
2018-03-14T05:36:19.176Z,100.00
2018-03-14T05:38:46.816Z,100.00
2018-03-14T05:41:14.496Z,100.00
2018-03-14T05:43:42.157Z,100.00
2018-03-14T05:46:09.788Z,100.00
2018-03-14T05:48:37.420Z,100.00
2018-03-14T05:51:05.036Z,100.00
2018-03-14T05:53:32.851Z,100.00
2018-03-14T05:56:00.446Z,100.00
2018-03-14T05:58:28.334Z,100.00
2018-03-14T06:00:55.934Z,100.00
2018-03-14T06:03:23.718Z,100.00
2018-03-14T06:05:51.532Z,100.00
2018-03-14T06:08:19.145Z,100.00
2018-03-14T06:10:46.783Z,100.00
2018-03-14T06:13:14.454Z,100.00
2018-03-14T06:15:42.046Z,100.00
2018-03-14T06:18:09.698Z,100.00
2018-03-14T06:20:37.310Z,100.00
2018-03-14T06:23:05.058Z,100.00
2018-03-14T06:25:32.694Z,100.00
2018-03-14T06:28:00.425Z,100.00
2018-03-14T06:30:28.077Z,100.00
2018-03-14T06:32:55.703Z,100.00
2018-03-14T06:35:23.303Z,100.00
2018-03-14T06:37:50.942Z,100.00
2018-03-14T06:40:18.570Z,100.00
2018-03-14T06:42:46.325Z,100.00
2018-03-14T06:45:13.949Z,100.00
2018-03-14T06:47:41.570Z,100.00
2018-03-14T06:50:09.182Z,100.00
2018-03-14T06:52:36.814Z,100.00
2018-03-14T06:55:04.998Z,100.00
2018-03-14T06:57:32.677Z,100.00
2018-03-14T07:00:12.021Z,100.00
2018-03-14T07:02:48.986Z,100.00
2018-03-14T07:05:30.093Z,100.00
2018-03-14T07:07:57.823Z,100.00
2018-03-14T07:10:25.423Z,100.00
2018-03-14T07:12:53.529Z,100.00
2018-03-14T07:15:21.141Z,100.00
2018-03-14T07:17:49.255Z,100.00
2018-03-14T07:20:16.971Z,100.00
2018-03-14T07:22:44.633Z,100.00
2018-03-14T07:25:12.225Z,100.00
2018-03-14T07:27:39.875Z,100.00
2018-03-14T07:30:07.536Z,99.89
2018-03-14T07:32:35.198Z,99.87
2018-03-14T07:35:02.817Z,100.00
2018-03-14T07:37:30.469Z,99.65
2018-03-14T07:39:58.077Z,99.61
2018-03-14T07:42:25.742Z,99.76
2018-03-14T07:44:53.331Z,99.61
2018-03-14T07:47:21.018Z,99.30
2018-03-14T07:49:48.616Z,99.23
2018-03-14T07:52:16.279Z,99.18
2018-03-14T07:54:43.871Z,99.26
2018-03-14T07:57:11.498Z,99.15
2018-03-14T07:59:39.085Z,98.85
2018-03-14T08:02:06.711Z,98.90
2018-03-14T08:04:34.299Z,98.78
2018-03-14T08:07:01.975Z,98.69
2018-03-14T08:09:29.567Z,99.07
2018-03-14T08:11:57.319Z,99.21
2018-03-14T08:14:24.909Z,98.73
2018-03-14T08:16:52.540Z,98.47
2018-03-14T08:19:20.171Z,98.12
2018-03-14T08:21:47.825Z,98.07
2018-03-14T08:24:15.418Z,97.65
2018-03-14T08:26:43.074Z,96.42
2018-03-14T08:29:10.682Z,94.93
2018-03-14T08:31:38.301Z,94.66
2018-03-14T08:34:05.979Z,95.28
2018-03-14T08:36:33.610Z,94.32
2018-03-14T08:39:01.218Z,93.20
2018-03-14T08:41:28.914Z,93.71
2018-03-14T08:43:56.479Z,94.05
2018-03-14T08:46:24.102Z,92.86
2018-03-14T08:48:51.808Z,92.38
2018-03-14T08:51:19.450Z,92.14
2018-03-14T08:53:47.042Z,92.42
2018-03-14T08:56:14.643Z,91.91
2018-03-14T08:58:42.293Z,90.42
2018-03-14T09:01:09.936Z,90.32
2018-03-14T09:03:37.651Z,89.19
2018-03-14T09:06:05.249Z,90.91
2018-03-14T09:08:32.885Z,90.27
2018-03-14T09:11:00.506Z,89.21
2018-03-14T09:13:28.107Z,88.47
2018-03-14T09:15:55.731Z,86.07
2018-03-14T09:18:23.322Z,86.08
2018-03-14T09:20:50.955Z,84.26
2018-03-14T09:23:18.559Z,85.03
2018-03-14T09:25:46.326Z,85.53
2018-03-14T09:28:13.922Z,84.10
2018-03-14T09:30:41.558Z,83.64
2018-03-14T09:33:09.156Z,82.83
2018-03-14T09:35:36.786Z,82.54
2018-03-14T09:38:04.386Z,80.22
2018-03-14T09:40:32.061Z,81.28
2018-03-14T09:42:59.690Z,82.39
2018-03-14T09:45:27.311Z,81.82
2018-03-14T09:47:54.923Z,82.68
2018-03-14T09:50:22.590Z,82.75
2018-03-14T09:52:50.175Z,81.46
2018-03-14T09:55:17.810Z,80.44
2018-03-14T09:57:45.402Z,80.45
2018-03-14T10:00:13.214Z,80.09
2018-03-14T10:02:40.819Z,78.83
2018-03-14T10:05:08.600Z,79.46
2018-03-14T10:07:36.195Z,79.34
2018-03-14T10:10:03.823Z,78.15
2018-03-14T10:12:31.439Z,78.45
2018-03-14T10:14:59.075Z,77.99
2018-03-14T10:17:26.804Z,79.13
2018-03-14T10:19:54.523Z,78.90
2018-03-14T10:22:22.123Z,76.63
2018-03-14T10:24:49.797Z,76.32
2018-03-14T10:27:17.482Z,75.31
2018-03-14T10:29:45.138Z,73.74
2018-03-14T10:32:12.731Z,75.05
2018-03-14T10:34:40.367Z,74.20
2018-03-14T10:37:07.966Z,74.34
2018-03-14T10:39:35.594Z,74.04
2018-03-14T10:42:03.225Z,73.83
2018-03-14T10:44:30.842Z,72.33
2018-03-14T10:46:58.602Z,70.40
2018-03-14T10:49:26.206Z,69.16
2018-03-14T10:51:53.847Z,68.58
2018-03-14T10:54:21.579Z,67.49
2018-03-14T10:56:49.174Z,67.02
2018-03-14T10:59:16.903Z,66.69
2018-03-14T11:01:47.447Z,66.12
2018-03-14T11:04:15.075Z,65.10
2018-03-14T11:06:42.722Z,64.30
2018-03-14T11:09:10.358Z,63.29
2018-03-14T11:11:37.990Z,63.26
2018-03-14T11:14:05.610Z,64.53
2018-03-14T11:16:33.237Z,63.36
2018-03-14T11:19:00.850Z,60.94
2018-03-14T11:21:28.588Z,59.07
2018-03-14T11:23:56.170Z,60.31
2018-03-14T11:26:23.845Z,59.32
2018-03-14T11:28:51.442Z,58.23
2018-03-14T11:31:19.084Z,58.67
2018-03-14T11:33:46.858Z,58.85
2018-03-14T11:36:14.508Z,58.38
2018-03-14T11:38:42.102Z,57.04
2018-03-14T11:41:09.722Z,57.35
2018-03-14T11:43:37.328Z,57.15
2018-03-14T11:46:04.958Z,58.61
2018-03-14T11:48:32.559Z,59.24
2018-03-14T11:51:00.204Z,59.27
2018-03-14T11:53:27.806Z,59.18
2018-03-14T11:55:55.423Z,58.20
2018-03-14T11:58:23.039Z,56.55
2018-03-14T12:00:50.803Z,55.64
2018-03-14T12:03:18.399Z,55.32
2018-03-14T12:05:46.143Z,56.35
2018-03-14T12:08:13.740Z,55.74
2018-03-14T12:10:41.478Z,55.35
2018-03-14T12:13:09.098Z,55.71
2018-03-14T12:15:36.699Z,56.26
2018-03-14T12:18:04.324Z,54.64
2018-03-14T12:20:31.910Z,52.75
2018-03-14T12:22:59.542Z,52.21
2018-03-14T12:25:27.138Z,50.37
2018-03-14T12:27:54.787Z,50.04
2018-03-14T12:30:22.386Z,51.50
2018-03-14T12:32:50.010Z,51.71
2018-03-14T12:35:17.608Z,50.90
2018-03-14T12:37:45.237Z,51.27
2018-03-14T12:40:12.894Z,54.30
2018-03-14T12:42:40.517Z,54.02
2018-03-14T12:45:08.126Z,53.62
2018-03-14T12:47:35.835Z,53.50
2018-03-14T12:50:03.408Z,52.78
2018-03-14T12:52:31.081Z,54.37
2018-03-14T12:54:58.682Z,54.99
2018-03-14T12:57:26.474Z,54.99
2018-03-14T12:59:54.179Z,55.68
2018-03-14T13:02:21.903Z,56.10
2018-03-14T13:04:49.514Z,55.66
2018-03-14T13:07:17.142Z,52.62
2018-03-14T13:09:44.743Z,52.61
2018-03-14T13:12:12.372Z,51.86
2018-03-14T13:14:39.984Z,50.42
2018-03-14T13:17:07.610Z,52.04
2018-03-14T13:19:35.214Z,51.54
2018-03-14T13:22:02.848Z,50.18
2018-03-14T13:24:30.562Z,50.54
2018-03-14T13:26:58.182Z,50.64
2018-03-14T13:29:25.886Z,48.61
2018-03-14T13:31:53.546Z,47.65
2018-03-14T13:34:21.143Z,46.91
2018-03-14T13:36:48.838Z,46.94
2018-03-14T13:39:16.438Z,47.43
2018-03-14T13:41:44.071Z,46.32
2018-03-14T13:44:11.703Z,45.75
2018-03-14T13:46:39.362Z,46.82
2018-03-14T13:49:06.967Z,45.35
2018-03-14T13:51:34.674Z,45.61
2018-03-14T13:54:02.306Z,45.35
2018-03-14T13:56:29.914Z,45.92
2018-03-14T13:58:57.718Z,46.08
2018-03-14T14:01:25.339Z,48.55
2018-03-14T14:03:52.947Z,50.34
2018-03-14T14:06:20.534Z,50.50
2018-03-14T14:08:48.192Z,52.39
2018-03-14T14:11:15.787Z,52.82
2018-03-14T14:13:43.410Z,53.21
2018-03-14T14:16:11.020Z,53.91
2018-03-14T14:18:38.663Z,54.21
2018-03-14T14:21:06.253Z,53.74
2018-03-14T14:23:33.944Z,53.49
2018-03-14T14:26:01.564Z,54.37
2018-03-14T14:28:29.207Z,55.03
2018-03-14T14:30:56.806Z,55.11
2018-03-14T14:33:24.438Z,53.95
2018-03-14T14:35:52.035Z,54.99
2018-03-14T14:38:19.667Z,54.62
2018-03-14T14:40:47.263Z,53.92
2018-03-14T14:43:14.928Z,52.21
2018-03-14T14:45:42.528Z,53.09
2018-03-14T14:48:10.150Z,52.39
2018-03-14T14:50:37.756Z,52.12
2018-03-14T14:53:05.461Z,50.26
2018-03-14T14:55:33.050Z,50.04
2018-03-14T14:58:00.686Z,51.16
2018-03-14T15:00:28.269Z,53.03
2018-03-14T15:02:55.911Z,53.22
2018-03-14T15:05:23.516Z,52.97
2018-03-14T15:07:51.135Z,53.63
2018-03-14T15:10:18.875Z,53.66
2018-03-14T15:12:46.615Z,52.33
2018-03-14T15:15:14.213Z,51.94
2018-03-14T15:17:41.825Z,48.76
2018-03-14T15:20:09.439Z,49.01
2018-03-14T15:22:37.102Z,48.86
2018-03-14T15:25:04.699Z,48.88
2018-03-14T15:27:32.294Z,49.98
2018-03-14T15:29:59.912Z,50.75
2018-03-14T15:32:27.542Z,49.95
2018-03-14T15:34:55.162Z,49.28
2018-03-14T15:37:22.807Z,48.54
2018-03-14T15:39:50.394Z,48.83
2018-03-14T15:42:18.027Z,48.97
2018-03-14T15:44:45.640Z,49.68
2018-03-14T15:47:13.275Z,48.67
2018-03-14T15:49:40.881Z,47.94
2018-03-14T15:52:08.558Z,48.58
2018-03-14T15:54:36.163Z,49.04
2018-03-14T15:57:04.064Z,48.99
2018-03-14T15:59:31.642Z,47.72
2018-03-14T16:01:59.371Z,48.53
2018-03-14T16:04:26.976Z,47.55
2018-03-14T16:06:54.575Z,47.59
2018-03-14T16:09:22.203Z,46.58
2018-03-14T16:11:49.821Z,46.47
2018-03-14T16:14:17.457Z,47.12
2018-03-14T16:16:45.047Z,47.17
2018-03-14T16:19:12.680Z,47.15
2018-03-14T16:21:40.294Z,48.43
2018-03-14T16:24:07.928Z,49.12
2018-03-14T16:26:35.570Z,48.72
2018-03-14T16:29:03.282Z,49.29
2018-03-14T16:31:30.873Z,49.07
2018-03-14T16:33:58.490Z,50.19
2018-03-14T16:36:26.086Z,51.44
2018-03-14T16:38:53.720Z,53.06
2018-03-14T16:41:21.359Z,53.31
2018-03-14T16:43:48.982Z,53.61
2018-03-14T16:46:16.572Z,53.64
2018-03-14T16:48:44.203Z,52.96
2018-03-14T16:51:11.798Z,53.83
2018-03-14T16:53:39.417Z,54.34
2018-03-14T16:56:07.061Z,54.99
2018-03-14T16:58:34.694Z,55.57
2018-03-14T17:01:02.287Z,56.43
2018-03-14T17:03:29.909Z,57.21
2018-03-14T17:05:57.534Z,57.77
2018-03-14T17:08:25.148Z,58.17
2018-03-14T17:10:52.770Z,58.30
2018-03-14T17:13:20.386Z,58.62
2018-03-14T17:15:48.142Z,58.54
2018-03-14T17:18:17.671Z,59.10
2018-03-14T17:20:45.259Z,59.16
2018-03-14T17:23:12.927Z,58.94
2018-03-14T17:25:41.318Z,59.23
2018-03-14T17:28:08.952Z,59.07
2018-03-14T17:30:36.631Z,59.06
2018-03-14T17:33:06.169Z,59.48
2018-03-14T17:35:33.766Z,59.29
2018-03-14T17:38:01.429Z,59.72
2018-03-14T17:40:29.039Z,59.57
2018-03-14T17:42:59.635Z,60.19
2018-03-14T17:45:27.246Z,59.74
2018-03-14T17:48:01.730Z,60.34
2018-03-14T17:50:29.321Z,60.40
2018-03-14T17:52:56.941Z,60.13
2018-03-14T17:55:24.838Z,60.92
2018-03-14T17:57:52.503Z,60.94
2018-03-14T18:00:20.126Z,61.69
2018-03-14T18:02:47.827Z,61.63
2018-03-14T18:05:15.435Z,61.76
2018-03-14T18:07:43.055Z,62.29
2018-03-14T18:10:10.671Z,63.10
2018-03-14T18:12:38.301Z,63.55
2018-03-14T18:15:05.893Z,63.76
2018-03-14T18:17:33.531Z,64.14
2018-03-14T18:20:01.121Z,64.42
2018-03-14T18:22:31.951Z,64.56
2018-03-14T18:24:59.561Z,65.02
2018-03-14T18:27:27.473Z,65.35
2018-03-14T18:29:55.027Z,65.24
2018-03-14T18:32:22.830Z,65.13
2018-03-14T18:34:51.716Z,65.14
2018-03-14T18:37:19.884Z,65.22
2018-03-14T18:39:47.538Z,65.21
2018-03-14T18:42:15.202Z,65.22
2018-03-14T18:44:42.795Z,65.48
2018-03-14T18:47:10.431Z,65.54
2018-03-14T18:49:38.024Z,65.70
2018-03-14T18:52:07.168Z,65.59
2018-03-14T18:54:34.769Z,65.81
2018-03-14T18:57:02.453Z,65.93
2018-03-14T18:59:30.078Z,66.19
2018-03-14T19:01:57.708Z,66.32
2018-03-14T19:04:25.320Z,66.16
2018-03-14T19:06:52.931Z,66.26
2018-03-14T19:09:20.534Z,66.17
2018-03-14T19:11:48.159Z,66.52
2018-03-14T19:14:15.763Z,66.30
2018-03-14T19:16:44.304Z,66.51
2018-03-14T19:19:11.963Z,66.61
2018-03-14T19:21:39.633Z,66.83
2018-03-14T19:24:07.253Z,67.12
2018-03-14T19:26:34.914Z,67.53
2018-03-14T19:29:02.505Z,67.80
2018-03-14T19:31:30.178Z,68.07
2018-03-14T19:33:57.794Z,67.83
2018-03-14T19:36:25.436Z,68.26
2018-03-14T19:38:53.220Z,68.46
2018-03-14T19:41:20.802Z,68.89
2018-03-14T19:43:48.448Z,68.92
2018-03-14T19:46:16.076Z,69.13
2018-03-14T19:48:43.684Z,69.53
2018-03-14T19:51:11.298Z,69.33
2018-03-14T19:53:38.901Z,69.62
2018-03-14T19:56:06.608Z,69.87
2018-03-14T19:58:34.224Z,70.35
2018-03-14T20:01:04.267Z,70.35
2018-03-14T20:03:31.888Z,70.90
2018-03-14T20:05:59.530Z,71.02
2018-03-14T20:08:27.143Z,71.40
2018-03-14T20:10:54.772Z,71.27
2018-03-14T20:13:22.527Z,71.56
2018-03-14T20:15:50.261Z,71.91
2018-03-14T20:18:19.630Z,72.07
2018-03-14T20:20:47.244Z,72.23
2018-03-14T20:23:14.866Z,72.45
2018-03-14T20:25:42.522Z,72.85
2018-03-14T20:28:10.491Z,72.60
2018-03-14T20:30:38.173Z,72.85
2018-03-14T20:33:05.867Z,72.71
2018-03-14T20:35:33.564Z,72.94
2018-03-14T20:38:01.212Z,73.41
2018-03-14T20:40:28.857Z,73.69
2018-03-14T20:42:56.442Z,73.30
2018-03-14T20:45:24.058Z,73.75
2018-03-14T20:47:51.666Z,73.95
2018-03-14T20:50:19.291Z,74.16
2018-03-14T20:52:47.337Z,73.92
2018-03-14T20:55:15.600Z,74.37
2018-03-14T20:57:43.203Z,74.44
2018-03-14T21:00:10.871Z,74.73
2018-03-14T21:02:38.485Z,75.01
2018-03-14T21:05:06.114Z,74.89
2018-03-14T21:07:33.810Z,74.87
2018-03-14T21:10:01.458Z,74.89
2018-03-14T21:12:29.056Z,75.05
2018-03-14T21:14:56.687Z,74.90
2018-03-14T21:17:24.347Z,75.14
2018-03-14T21:19:52.022Z,75.16
2018-03-14T21:22:19.597Z,75.09
2018-03-14T21:24:47.215Z,75.30
2018-03-14T21:27:14.807Z,75.26
2018-03-14T21:29:42.543Z,75.30
2018-03-14T21:32:10.139Z,75.46
2018-03-14T21:34:37.774Z,75.55
2018-03-14T21:37:05.369Z,75.11
2018-03-14T21:39:33.010Z,75.20
2018-03-14T21:42:00.717Z,75.01
2018-03-14T21:44:28.339Z,75.10
2018-03-14T21:46:56.729Z,75.29
2018-03-14T21:49:27.881Z,75.37
2018-03-14T21:51:55.482Z,75.41
2018-03-14T21:54:23.118Z,75.39
2018-03-14T21:56:50.704Z,75.57
2018-03-14T21:59:18.311Z,75.30
2018-03-14T22:01:46.060Z,75.22
2018-03-14T22:04:13.644Z,75.17
2018-03-14T22:06:41.289Z,74.96
2018-03-14T22:09:08.903Z,75.22
2018-03-14T22:11:36.638Z,75.23
2018-03-14T22:14:04.169Z,74.87
2018-03-14T22:16:31.799Z,75.00
2018-03-14T22:18:59.574Z,74.93
2018-03-14T22:21:27.191Z,74.89
2018-03-14T22:23:54.787Z,74.97
2018-03-14T22:26:22.399Z,75.17
2018-03-14T22:28:50.003Z,75.12
2018-03-14T22:31:17.658Z,75.39
2018-03-14T22:33:45.374Z,75.25
2018-03-14T22:36:13.019Z,75.22
2018-03-14T22:38:40.594Z,75.17
2018-03-14T22:41:08.900Z,75.11
2018-03-14T22:43:36.609Z,75.27
2018-03-14T22:46:04.247Z,75.00
2018-03-14T22:48:32.028Z,75.14
2018-03-14T22:50:59.804Z,75.38
2018-03-14T22:53:27.412Z,75.45
2018-03-14T22:55:55.066Z,75.48
2018-03-14T22:58:22.662Z,75.46
2018-03-14T23:00:50.304Z,75.55
2018-03-14T23:03:17.917Z,75.75
2018-03-14T23:05:45.556Z,75.68
2018-03-14T23:08:13.124Z,75.68
2018-03-14T23:10:40.751Z,75.98
2018-03-14T23:13:08.353Z,76.28
2018-03-14T23:15:36.004Z,76.19
2018-03-14T23:18:03.595Z,76.33
2018-03-14T23:20:31.242Z,76.34
2018-03-14T23:22:58.851Z,76.21
2018-03-14T23:25:26.528Z,76.22
2018-03-14T23:27:54.111Z,76.00
2018-03-14T23:30:21.751Z,75.84
2018-03-14T23:32:49.368Z,76.00
2018-03-14T23:35:17.015Z,76.00
2018-03-14T23:37:44.627Z,76.33
2018-03-14T23:40:12.246Z,76.46
2018-03-14T23:42:39.838Z,76.53
2018-03-14T23:45:07.614Z,76.33
2018-03-14T23:47:35.204Z,76.47
2018-03-14T23:50:02.834Z,76.64
2018-03-14T23:52:30.464Z,76.51
2018-03-14T23:54:58.088Z,77.01
2018-03-14T23:57:25.672Z,77.24
2018-03-14T23:59:53.290Z,77.34
